createdAt,value
2022-08-23T00:01:12.786Z,19.41
2022-08-23T00:08:48.888Z,19.33
2022-08-23T00:16:24.149Z,19.24
2022-08-23T00:23:58.769Z,19.17
2022-08-23T00:31:34.212Z,19.09
2022-08-23T00:39:08.016Z,19.08
2022-08-23T00:47:03.858Z,19.06
2022-08-23T00:54:38.930Z,19.02
2022-08-23T01:02:14.359Z,18.94
2022-08-23T01:09:49.706Z,18.87
2022-08-23T01:17:29.690Z,18.82
2022-08-23T01:25:09.534Z,18.75
2022-08-23T01:32:46.997Z,18.75
2022-08-23T01:40:22.345Z,18.76
2022-08-23T01:47:56.725Z,18.72
2022-08-23T01:55:32.184Z,18.70
2022-08-23T02:03:07.387Z,18.53
2022-08-23T02:10:42.540Z,18.53
2022-08-23T02:18:16.326Z,18.55
2022-08-23T02:25:52.555Z,18.52
2022-08-23T02:33:26.404Z,18.45
2022-08-23T02:41:02.441Z,18.39
2022-08-23T02:48:37.629Z,18.41
2022-08-23T02:56:21.322Z,18.42
2022-08-23T03:03:56.474Z,18.39
2022-08-23T03:11:31.755Z,18.40
2022-08-23T03:19:05.474Z,18.38
2022-08-23T03:26:43.630Z,18.37
2022-08-23T03:34:17.394Z,18.35
2022-08-23T03:41:52.670Z,18.35
2022-08-23T03:49:26.769Z,18.35
2022-08-23T03:57:05.064Z,18.35
2022-08-23T04:04:39.158Z,18.28
2022-08-23T04:12:17.895Z,18.25
2022-08-23T04:19:51.760Z,18.21
2022-08-23T04:27:26.883Z,18.20
2022-08-23T04:35:00.599Z,18.25
2022-08-23T04:42:35.835Z,18.27
2022-08-23T04:50:09.979Z,18.24
2022-08-23T04:57:45.776Z,18.22
2022-08-23T05:05:20.729Z,18.20
2022-08-23T05:12:56.093Z,18.17
2022-08-23T05:20:30.115Z,18.17
2022-08-23T05:28:08.779Z,18.17
2022-08-23T05:35:42.586Z,18.16
2022-08-23T05:43:17.709Z,18.20
2022-08-23T05:50:52.495Z,18.31
2022-08-23T05:58:27.660Z,18.40
2022-08-23T06:06:02.732Z,18.56
2022-08-23T06:13:40.185Z,18.70
2022-08-23T06:21:15.809Z,18.80
2022-08-23T06:28:55.591Z,18.94
2022-08-23T06:36:29.739Z,19.05
2022-08-23T06:44:06.328Z,19.13
2022-08-23T06:51:44.193Z,19.25
2022-08-23T06:59:20.187Z,19.35
2022-08-23T07:06:56.141Z,19.49
2022-08-23T07:14:32.395Z,19.60
2022-08-23T07:22:07.192Z,19.77
2022-08-23T07:29:42.452Z,19.88
2022-08-23T07:37:17.243Z,19.97
2022-08-23T07:44:53.527Z,20.08
2022-08-23T07:52:27.561Z,20.19
2022-08-23T08:00:04.023Z,20.33
2022-08-23T08:07:37.895Z,20.49
2022-08-23T08:15:13.184Z,20.65
2022-08-23T08:22:49.916Z,20.71
2022-08-23T08:30:31.667Z,20.78
2022-08-23T08:38:05.571Z,20.93
2022-08-23T08:45:59.075Z,21.03
2022-08-23T08:53:38.955Z,21.18
2022-08-23T09:01:16.748Z,21.29
2022-08-23T09:09:04.357Z,21.63
2022-08-23T09:16:50.836Z,21.97
2022-08-23T09:24:25.379Z,21.96
2022-08-23T09:32:03.088Z,22.02
2022-08-23T09:39:39.351Z,22.05
2022-08-23T09:47:17.094Z,22.01
2022-08-23T09:55:00.524Z,22.12
2022-08-23T10:02:36.547Z,22.22
2022-08-23T10:10:18.762Z,22.36
2022-08-23T10:18:02.981Z,22.50
2022-08-23T10:25:42.963Z,22.61
2022-08-23T10:33:26.056Z,22.78
2022-08-23T10:41:04.260Z,22.90
2022-08-23T10:48:55.946Z,23.00
2022-08-23T10:56:30.535Z,23.00
2022-08-23T11:04:10.078Z,23.03
2022-08-23T11:11:47.495Z,23.19
2022-08-23T11:19:52.491Z,23.35
2022-08-23T11:27:32.875Z,23.44
2022-08-23T11:35:13.752Z,23.54
2022-08-23T11:42:53.231Z,23.71
2022-08-23T11:50:39.321Z,23.94
2022-08-23T11:58:23.453Z,24.06
2022-08-23T12:06:13.620Z,23.95
2022-08-23T12:13:55.134Z,24.01
2022-08-23T12:21:35.543Z,23.96
2022-08-23T12:29:20.765Z,23.92
2022-08-23T12:37:09.452Z,23.80
2022-08-23T12:44:45.054Z,23.86
2022-08-23T12:52:26.648Z,23.90
2022-08-23T13:00:17.283Z,24.10
2022-08-23T13:07:53.340Z,24.21
2022-08-23T13:15:46.570Z,24.38
2022-08-23T13:23:29.433Z,24.54
2022-08-23T13:31:05.511Z,24.55
2022-08-23T13:38:41.266Z,24.62
2022-08-23T13:46:22.344Z,24.54
2022-08-23T13:54:01.042Z,24.48
2022-08-23T14:01:35.547Z,24.51
2022-08-23T14:09:10.807Z,24.58
2022-08-23T14:16:44.784Z,24.63
2022-08-23T14:24:19.991Z,24.77
2022-08-23T14:31:53.873Z,24.86
2022-08-23T14:39:29.162Z,25.42
2022-08-23T14:47:03.089Z,25.29
2022-08-23T14:54:38.383Z,25.26
2022-08-23T15:02:14.561Z,25.23
2022-08-23T15:09:51.334Z,25.76
2022-08-23T15:17:30.925Z,26.21
2022-08-23T15:25:07.396Z,25.99
2022-08-23T15:32:41.411Z,25.68
2022-08-23T15:40:27.438Z,25.35
2022-08-23T15:48:04.515Z,25.20
2022-08-23T15:55:41.103Z,25.14
2022-08-23T16:03:19.068Z,25.11
2022-08-23T16:10:55.401Z,25.61
2022-08-23T16:18:29.135Z,25.40
2022-08-23T16:26:04.288Z,25.99
2022-08-23T16:33:38.232Z,26.02
2022-08-23T16:41:14.382Z,25.35
2022-08-23T16:48:48.190Z,25.06
2022-08-23T16:56:23.366Z,24.97
2022-08-23T17:03:57.335Z,24.98
2022-08-23T17:11:33.044Z,24.68
2022-08-23T17:19:07.191Z,24.49
2022-08-23T17:26:42.805Z,24.56
2022-08-23T17:34:16.719Z,24.54
2022-08-23T17:41:52.200Z,24.41
2022-08-23T17:49:25.978Z,24.27
2022-08-23T17:57:01.753Z,24.17
2022-08-23T18:04:40.948Z,24.00
2022-08-23T18:12:16.063Z,23.86
2022-08-23T18:19:50.031Z,23.73
2022-08-23T18:27:42.732Z,23.54
2022-08-23T18:35:17.050Z,23.33
2022-08-23T18:42:55.452Z,23.13
2022-08-23T18:50:29.226Z,22.94
2022-08-23T18:58:04.978Z,22.78
2022-08-23T19:05:42.216Z,22.61
2022-08-23T19:13:17.766Z,22.44
2022-08-23T19:20:51.996Z,22.29
2022-08-23T19:28:27.636Z,22.11
2022-08-23T19:36:02.674Z,21.93
2022-08-23T19:43:38.944Z,21.77
2022-08-23T19:51:13.730Z,21.65
2022-08-23T19:58:49.527Z,21.54
2022-08-23T20:06:23.800Z,21.39
2022-08-23T20:14:00.155Z,21.30
2022-08-23T20:21:34.102Z,21.17
2022-08-23T20:29:12.744Z,21.04
2022-08-23T20:36:46.831Z,20.91
2022-08-23T20:44:22.634Z,20.78
2022-08-23T20:51:56.542Z,20.65
2022-08-23T20:59:31.728Z,20.52
2022-08-23T21:07:05.594Z,20.40
2022-08-23T21:14:41.195Z,20.34
2022-08-23T21:22:14.980Z,20.23
2022-08-23T21:29:50.151Z,20.12
2022-08-23T21:37:23.932Z,20.04
2022-08-23T21:44:59.114Z,19.95
2022-08-23T21:52:33.040Z,19.82
2022-08-23T22:00:13.597Z,19.76
2022-08-23T22:07:47.318Z,19.68
2022-08-23T22:15:25.885Z,19.56
2022-08-23T22:23:00.948Z,19.44
2022-08-23T22:30:36.331Z,19.36
2022-08-23T22:38:14.138Z,19.27
2022-08-23T22:45:53.962Z,19.20
2022-08-23T22:53:27.733Z,19.15
2022-08-23T23:01:07.057Z,19.06
2022-08-23T23:08:46.829Z,18.96
2022-08-23T23:16:24.233Z,18.89
2022-08-23T23:23:58.190Z,18.83
2022-08-23T23:31:33.331Z,18.76
2022-08-23T23:39:08.588Z,18.68
2022-08-23T23:46:48.086Z,18.64
2022-08-23T23:54:23.495Z,18.55
